Time;durP1;ratioP1;P1;durP2;ratioP2;P2;SDS_P1;SDS_P2;PMS_P1;PMS_P2;Temp;Humidity;BMP_temperature;BMP_pressure;BME280_temperature;BME280_humidity;BME280_pressure;Samples;Min_cycle;Max_cycle;Signal;HPM_P1;HPM_P2
2021/05/07 00:02:01;;;;;;;5.68;2.05;;;;;;;22.08;48.64;101148.91;144992;564;6002;-81
2021/05/07 00:04:28;;;;;;;5.68;1.67;;;;;;;22.15;48.44;101156.78;144992;611;6002;-82
2021/05/07 00:06:55;;;;;;;3.47;1.60;;;;;;;22.13;48.16;101151.50;144993;585;6003;-80
2021/05/07 00:09:22;;;;;;;4.07;1.70;;;;;;;22.16;48.32;101155.84;144993;678;6002;-81
2021/05/07 00:11:49;;;;;;;3.12;1.40;;;;;;;22.19;48.17;101156.72;144993;575;6002;-82
2021/05/07 00:14:16;;;;;;;3.28;1.75;;;;;;;22.17;48.01;101153.19;144993;569;6003;-81
2021/05/07 00:16:42;;;;;;;5.70;1.52;;;;;;;22.15;47.80;101146.19;144993;596;6002;-80
2021/05/07 00:19:09;;;;;;;3.55;1.50;;;;;;;22.14;47.87;101150.59;144993;615;6002;-80
2021/05/07 00:21:35;;;;;;;4.80;1.58;;;;;;;22.14;47.93;101152.37;144993;686;6002;-83
2021/05/07 00:24:03;;;;;;;4.57;1.55;;;;;;;22.14;47.85;101145.31;144993;595;6002;-83
2021/05/07 00:26:38;;;;;;;5.25;2.30;;;;;;;22.16;47.84;101145.28;144993;599;6002;-81
2021/05/07 00:29:12;;;;;;;4.93;1.50;;;;;;;22.19;47.69;101135.56;144993;574;6002;-81
2021/05/07 00:31:42;;;;;;;4.60;1.60;;;;;;;22.25;47.43;101129.31;144993;601;6002;-81
2021/05/07 00:34:11;;;;;;;3.03;1.33;;;;;;;22.25;47.39;101129.31;144993;615;6002;-80
2021/05/07 00:36:42;;;;;;;4.53;1.40;;;;;;;22.26;47.68;101128.44;144992;565;6002;-81
2021/05/07 00:39:08;;;;;;;4.55;1.62;;;;;;;22.29;47.60;101123.12;144992;676;6002;-80
2021/05/07 00:41:35;;;;;;;2.20;1.25;;;;;;;22.22;47.56;101124.97;144992;710;6002;-83
2021/05/07 00:44:02;;;;;;;3.65;1.62;;;;;;;22.21;47.22;101119.69;144992;647;6002;-81
2021/05/07 00:46:28;;;;;;;4.95;1.48;;;;;;;22.19;47.22;101121.47;144991;567;6002;-82
2021/05/07 00:48:55;;;;;;;6.47;1.80;;;;;;;21.89;46.08;101111.22;144992;633;6002;-84
2021/05/07 00:51:24;;;;;;;6.22;2.15;;;;;;;21.89;47.79;101107.72;144992;645;6002;-82
2021/05/07 00:53:52;;;;;;;5.85;1.87;;;;;;;21.92;47.39;101103.28;144993;637;6002;-83
2021/05/07 00:56:20;;;;;;;4.32;1.70;;;;;;;21.96;47.22;101106.75;144993;664;6002;-81
2021/05/07 00:58:47;;;;;;;4.68;2.00;;;;;;;21.94;47.21;101108.53;144993;737;6002;-82
2021/05/07 01:01:14;;;;;;;4.15;2.10;;;;;;;21.93;47.00;101112.06;144993;657;6002;-81
2021/05/07 01:03:40;;;;;;;5.32;2.30;;;;;;;21.76;47.08;101106.09;144993;665;6002;-82
2021/05/07 01:06:07;;;;;;;10.35;3.05;;;;;;;21.72;47.33;101107.87;144993;665;6002;-82
2021/05/07 01:08:35;;;;;;;5.30;2.70;;;;;;;21.68;47.18;101103.50;144993;648;6002;-80
2021/05/07 01:11:02;;;;;;;4.65;2.62;;;;;;;21.53;47.67;101108.06;144993;599;6002;-81
2021/05/07 01:13:28;;;;;;;5.55;2.40;;;;;;;21.43;47.90;101102.84;144993;564;6002;-81
2021/05/07 01:15:55;;;;;;;6.75;2.30;;;;;;;21.44;47.92;101101.97;144993;566;6002;-82
2021/05/07 01:18:21;;;;;;;7.62;2.80;;;;;;;21.28;48.26;101096.81;144993;553;6002;-81
2021/05/07 01:20:48;;;;;;;7.25;2.53;;;;;;;21.31;48.26;101083.56;144993;580;6002;-80
2021/05/07 01:23:14;;;;;;;8.63;2.55;;;;;;;21.31;48.27;101086.22;144993;642;6002;-81
2021/05/07 01:25:44;;;;;;;8.32;2.60;;;;;;;21.27;48.96;101078.34;144993;567;6002;-80
2021/05/07 01:28:13;;;;;;;6.37;2.15;;;;;;;21.23;48.59;101071.34;144993;633;6002;-81
2021/05/07 01:30:42;;;;;;;5.62;2.22;;;;;;;21.19;48.86;101066.09;144993;641;6002;-80
2021/05/07 01:33:14;;;;;;;3.70;2.03;;;;;;;21.14;50.62;101064.37;144993;711;6002;-80
2021/05/07 01:35:42;;;;;;;11.30;4.50;;;;;;;21.10;49.46;101060.03;144993;600;6002;-81
2021/05/07 01:38:14;;;;;;;5.85;2.47;;;;;;;21.11;49.68;101069.66;144993;575;6002;-81
2021/05/07 01:40:47;;;;;;;7.60;2.67;;;;;;;21.13;49.77;101070.56;144993;653;6002;-81
2021/05/07 01:43:16;;;;;;;6.30;2.37;;;;;;;21.14;49.90;101073.19;144994;661;5002;-81
2021/05/07 01:45:44;;;;;;;6.75;2.50;;;;;;;21.07;51.57;101081.16;144994;569;5002;-80
2021/05/07 01:48:12;;;;;;;7.43;2.55;;;;;;;20.74;52.12;101084.00;144994;619;5002;-82
2021/05/07 01:50:41;;;;;;;10.45;2.55;;;;;;;20.54;51.70;101091.16;144994;583;5002;-82
2021/05/07 01:53:08;;;;;;;7.20;2.67;;;;;;;20.61;51.12;101093.72;144994;708;5002;-82
2021/05/07 01:55:43;;;;;;;8.57;3.28;;;;;;;20.61;51.25;101103.41;144994;612;5002;-84
2021/05/07 01:58:13;;;;;;;6.15;2.78;;;;;;;20.65;51.74;101110.47;144994;599;5002;-82
2021/05/07 02:00:41;;;;;;;6.05;2.70;;;;;;;20.77;50.89;101114.78;144994;633;5002;-81
2021/05/07 02:03:11;;;;;;;6.25;2.87;;;;;;;20.90;50.64;101116.44;144994;570;5002;-82
2021/05/07 02:05:41;;;;;;;5.75;2.45;;;;;;;20.99;50.33;101116.38;144994;658;5002;-82
2021/05/07 02:08:08;;;;;;;6.93;2.67;;;;;;;21.09;50.27;101121.59;144994;608;5002;-81
2021/05/07 02:10:40;;;;;;;5.62;2.70;;;;;;;21.17;50.13;101112.75;144994;658;5002;-83
2021/05/07 02:13:11;;;;;;;9.18;2.62;;;;;;;21.26;49.77;101122.34;144994;628;5002;-81
2021/05/07 02:15:38;;;;;;;9.93;2.83;;;;;;;21.34;49.76;101122.28;144994;572;5002;-80
2021/05/07 02:18:09;;;;;;;6.05;2.62;;;;;;;21.33;49.65;101115.25;144994;586;5002;-81
2021/05/07 02:20:39;;;;;;;5.65;2.78;;;;;;;21.40;49.46;101105.53;144993;577;5002;-81
2021/05/07 02:23:08;;;;;;;5.28;3.08;;;;;;;21.43;49.32;101114.28;144994;586;5002;-82
2021/05/07 02:25:35;;;;;;;5.37;3.17;;;;;;;21.43;49.28;101116.94;144994;582;5002;-82
2021/05/07 02:28:03;;;;;;;5.57;2.90;;;;;;;21.46;49.26;101121.28;144994;594;5002;-81
2021/05/07 02:30:37;;;;;;;7.90;3.22;;;;;;;21.42;49.21;101109.91;144994;629;5002;-81
2021/05/07 02:33:05;;;;;;;6.97;2.70;;;;;;;21.39;49.52;101104.63;144994;656;5002;-82
2021/05/07 02:35:33;;;;;;;5.82;2.70;;;;;;;21.44;49.30;101091.41;144994;656;5002;-82
2021/05/07 02:38:00;;;;;;;6.93;2.83;;;;;;;21.47;49.36;101086.09;144994;599;5002;-81
2021/05/07 02:40:41;;;;;;;4.85;2.53;;;;;;;21.48;49.32;101093.12;144994;581;5002;-82
2021/05/07 02:43:11;;;;;;;7.15;2.85;;;;;;;21.47;49.34;101086.09;144994;578;5002;-82
2021/05/07 02:45:37;;;;;;;4.68;2.50;;;;;;;21.38;49.40;101097.63;144994;601;5002;-81
2021/05/07 02:48:04;;;;;;;8.88;2.55;;;;;;;21.30;49.50;101092.41;144994;659;5002;-81
2021/05/07 02:50:31;;;;;;;8.43;2.42;;;;;;;21.30;49.53;101094.16;144993;564;5002;-80
2021/05/07 02:52:57;;;;;;;8.68;2.60;;;;;;;21.23;49.45;101095.97;144994;589;5002;-81
2021/05/07 02:55:24;;;;;;;9.27;2.90;;;;;;;21.18;49.45;101089.88;144994;588;5002;-81
2021/05/07 02:57:50;;;;;;;9.73;2.78;;;;;;;21.15;49.59;101088.09;144994;575;5002;-80
2021/05/07 03:00:18;;;;;;;6.05;2.08;;;;;;;20.89;48.23;101105.94;144994;669;5002;-81
2021/05/07 03:02:44;;;;;;;4.70;2.00;;;;;;;20.93;50.05;101119.06;144994;672;5002;-82
2021/05/07 03:05:12;;;;;;;5.95;1.70;;;;;;;20.82;49.25;101110.34;144994;585;5002;-81
2021/05/07 03:07:38;;;;;;;4.78;1.77;;;;;;;20.85;49.87;101102.41;144994;569;5002;-81
2021/05/07 03:10:08;;;;;;;7.12;1.90;;;;;;;20.84;49.50;101101.53;144994;670;5002;-81
2021/05/07 03:12:34;;;;;;;3.60;1.40;;;;;;;20.84;49.40;101127.06;144994;566;5002;-81
2021/05/07 03:15:02;;;;;;;5.62;1.50;;;;;;;20.72;48.84;101124.50;144994;592;5002;-81
2021/05/07 03:17:29;;;;;;;3.78;1.60;;;;;;;20.74;49.47;101120.06;144994;612;5002;-81
2021/05/07 03:19:55;;;;;;;4.20;1.50;;;;;;;20.69;49.38;101121.87;144994;598;5002;-81
2021/05/07 03:22:22;;;;;;;5.18;1.80;;;;;;;20.61;49.59;101122.75;144994;564;5002;-81
2021/05/07 03:24:49;;;;;;;5.30;1.80;;;;;;;20.68;49.18;101136.84;144994;563;5002;-81
2021/05/07 03:27:17;;;;;;;6.57;1.90;;;;;;;20.72;49.15;101138.56;144994;564;5002;-81
2021/05/07 03:29:43;;;;;;;3.58;1.75;;;;;;;20.76;49.15;101142.94;144994;602;5002;-81
2021/05/07 03:32:10;;;;;;;5.97;2.03;;;;;;;20.78;48.86;101130.59;144994;606;5002;-81
2021/05/07 03:34:36;;;;;;;6.15;2.35;;;;;;;20.85;49.05;101105.06;144994;563;5002;-81
2021/05/07 03:37:03;;;;;;;7.43;2.60;;;;;;;20.82;48.30;101091.88;144994;581;5002;-81
2021/05/07 03:39:30;;;;;;;4.43;2.15;;;;;;;20.74;48.66;101117.44;144994;612;5002;-82
2021/05/07 03:41:56;;;;;;;5.72;2.60;;;;;;;20.77;48.54;101130.59;144994;627;5002;-81
2021/05/07 03:44:23;;;;;;;9.77;2.65;;;;;;;20.80;48.82;101127.97;144994;602;5002;-81
2021/05/07 03:46:49;;;;;;;6.37;2.25;;;;;;;20.65;48.35;101115.75;144994;604;5002;-81
2021/05/07 03:49:16;;;;;;;6.68;2.65;;;;;;;20.61;49.07;101104.28;144994;604;5002;-81
2021/05/07 03:51:42;;;;;;;9.55;2.80;;;;;;;20.60;49.28;101097.28;144994;596;5002;-81
2021/05/07 03:54:09;;;;;;;10.50;3.62;;;;;;;20.64;49.36;101091.09;144994;626;5002;-82
2021/05/07 03:56:35;;;;;;;9.90;3.00;;;;;;;20.69;48.85;101093.72;144994;654;5002;-82
2021/05/07 03:59:02;;;;;;;7.25;2.72;;;;;;;20.73;48.77;101100.75;144994;618;5002;-81
2021/05/07 04:01:32;;;;;;;8.52;2.53;;;;;;;20.78;49.22;101092.81;144994;581;5002;-80
2021/05/07 04:03:58;;;;;;;10.43;3.60;;;;;;;20.82;49.00;101097.16;144994;607;5002;-81
2021/05/07 04:06:28;;;;;;;10.60;3.90;;;;;;;20.74;48.80;101104.25;144994;597;5002;-81
2021/05/07 04:11:58;;;;;;;10.52;3.55;;;;;;;20.60;49.05;101096.38;144994;576;5004;-81
2021/05/07 04:14:25;;;;;;;11.32;3.47;;;;;;;20.56;49.49;101110.47;144994;592;5004;-82
2021/05/07 04:16:51;;;;;;;11.18;3.37;;;;;;;20.45;50.49;101119.31;144994;570;5004;-82
2021/05/07 04:19:18;;;;;;;9.88;3.75;;;;;;;20.43;49.78;101125.50;144994;612;5004;-83
2021/05/07 04:21:44;;;;;;;16.35;3.85;;;;;;;20.49;50.35;101141.28;144994;587;5004;-82
2021/05/07 04:24:11;;;;;;;12.98;3.62;;;;;;;20.44;50.08;101157.12;144994;584;5004;-83
2021/05/07 04:26:55;;;;;;;;;;;;;;;;;;;;;
2021/05/07 04:29:27;;;;;;;15.30;3.65;;;;;;;20.75;49.85;101151.72;144994;592;5002;-82
2021/05/07 04:31:54;;;;;;;17.60;5.22;;;;;;;20.92;49.61;101154.28;144994;603;5002;-81
2021/05/07 04:34:23;;;;;;;12.23;3.70;;;;;;;21.03;49.53;101170.06;144994;599;5002;-83
2021/05/07 04:36:51;;;;;;;17.45;3.70;;;;;;;21.16;49.43;101171.72;144994;660;5002;-81
2021/05/07 04:39:17;;;;;;;8.52;2.90;;;;;;;21.26;49.17;101177.78;144994;631;5002;-80
2021/05/07 04:41:44;;;;;;;7.72;3.10;;;;;;;21.30;49.08;101182.19;144994;646;5002;-81
2021/05/07 04:44:12;;;;;;;13.20;3.10;;;;;;;21.37;48.82;101169.81;144994;564;5002;-81
2021/05/07 04:46:49;;;;;;;8.95;3.20;;;;;;;21.41;48.57;101166.22;144994;722;5002;-82
2021/05/07 04:49:16;;;;;;;7.03;2.78;;;;;;;21.45;48.69;101167.09;144994;564;5002;-82
2021/05/07 04:51:42;;;;;;;9.75;2.87;;;;;;;21.52;48.69;101177.66;144994;588;5002;-81
2021/05/07 04:54:09;;;;;;;6.18;2.90;;;;;;;21.55;48.70;101172.34;144994;571;5002;-81
2021/05/07 04:56:35;;;;;;;10.38;2.90;;;;;;;21.65;48.74;101173.13;144994;650;5002;-82
2021/05/07 04:59:02;;;;;;;8.55;3.03;;;;;;;21.69;48.82;101164.25;144994;615;5002;-82
2021/05/07 05:01:32;;;;;;;10.23;3.20;;;;;;;21.80;48.93;101174.75;144994;652;5002;-82
2021/05/07 05:03:59;;;;;;;10.88;3.00;;;;;;;21.91;48.73;101172.00;144994;640;5002;-82
2021/05/07 05:06:25;;;;;;;14.82;4.30;;;;;;;21.97;48.60;101187.81;144994;641;5002;-84
2021/05/07 05:08:53;;;;;;;10.98;4.10;;;;;;;22.05;48.50;101180.66;144994;665;5002;-81
2021/05/07 05:11:19;;;;;;;8.45;3.92;;;;;;;22.10;48.43;101184.12;144994;622;5002;-82
2021/05/07 05:13:46;;;;;;;12.48;3.83;;;;;;;22.15;48.12;101181.44;144994;627;5002;-80
2021/05/07 05:16:12;;;;;;;13.60;3.90;;;;;;;22.21;47.93;101184.00;144994;665;5002;-81
2021/05/07 05:18:39;;;;;;;8.60;3.87;;;;;;;22.25;48.19;101180.44;144994;681;5002;-80
2021/05/07 05:21:08;;;;;;;13.20;3.58;;;;;;;22.29;48.14;101168.06;144994;678;5002;-80
2021/05/07 05:23:35;;;;;;;6.97;3.35;;;;;;;22.31;48.11;101176.03;144994;589;5002;-82
2021/05/07 05:26:02;;;;;;;9.30;4.15;;;;;;;22.34;48.19;101171.56;144994;647;5002;-81
2021/05/07 05:28:28;;;;;;;13.57;6.62;;;;;;;22.35;48.22;101177.72;144994;673;5002;-81
2021/05/07 05:30:55;;;;;;;13.07;6.28;;;;;;;22.40;48.32;101182.06;144994;578;5002;-81
2021/05/07 05:33:22;;;;;;;12.27;4.30;;;;;;;22.38;48.33;101181.22;144993;590;5002;-82
2021/05/07 05:35:49;;;;;;;8.68;3.33;;;;;;;22.26;49.50;101183.97;144994;605;5002;-81
2021/05/07 05:38:15;;;;;;;8.68;3.25;;;;;;;22.22;48.79;101177.84;144994;674;5002;-81
2021/05/07 05:40:42;;;;;;;10.43;2.90;;;;;;;22.16;49.01;101185.84;144994;596;5002;-80
2021/05/07 05:43:09;;;;;;;13.55;3.80;;;;;;;22.17;49.19;101192.00;144994;655;5002;-81
2021/05/07 05:45:35;;;;;;;10.25;3.92;;;;;;;22.24;49.29;101193.69;144993;581;5002;-80
2021/05/07 05:48:07;;;;;;;12.60;3.90;;;;;;;22.34;49.27;101192.72;144994;602;5002;-81
2021/05/07 05:50:35;;;;;;;12.05;3.70;;;;;;;22.46;49.30;101191.69;144994;612;5002;-81
2021/05/07 05:53:01;;;;;;;14.95;4.20;;;;;;;22.59;49.22;101189.78;144994;575;5002;-81
2021/05/07 05:55:27;;;;;;;12.85;4.12;;;;;;;22.73;49.00;101195.78;144994;643;5002;-83
2021/05/07 05:57:54;;;;;;;12.00;3.58;;;;;;;22.86;48.59;101190.28;144994;570;5002;-80
2021/05/07 06:00:22;;;;;;;16.25;3.83;;;;;;;22.96;48.69;101179.56;144994;563;5002;-83
2021/05/07 06:02:48;;;;;;;12.68;3.25;;;;;;;23.04;48.15;101182.09;144993;570;5002;-81
2021/05/07 06:05:15;;;;;;;6.85;3.00;;;;;;;22.99;48.37;101184.81;144994;579;5002;-82
2021/05/07 06:07:43;;;;;;;9.30;2.80;;;;;;;23.04;48.03;101191.84;144994;608;5002;-82
2021/05/07 06:10:11;;;;;;;6.12;2.45;;;;;;;23.05;47.80;101201.50;144994;569;5002;-81
2021/05/07 06:12:39;;;;;;;11.35;2.25;;;;;;;23.07;47.96;101205.88;144994;620;5002;-81
2021/05/07 06:15:12;;;;;;;11.80;2.55;;;;;;;23.19;48.58;101220.75;144994;591;5002;-81
2021/05/07 06:17:39;;;;;;;9.27;2.65;;;;;;;23.31;47.77;101223.22;144994;613;4567;-81
2021/05/07 06:20:07;;;;;;;8.50;2.30;;;;;;;23.43;48.20;101219.53;144994;581;4573;-80
2021/05/07 06:22:35;;;;;;;7.60;2.83;;;;;;;23.46;44.92;101219.44;144994;570;4572;-80
2021/05/07 06:25:04;;;;;;;7.35;2.10;;;;;;;23.33;44.13;101223.19;144992;569;6002;-81
2021/05/07 06:27:30;;;;;;;9.60;2.05;;;;;;;23.06;45.22;101225.31;144992;645;6002;-82
2021/05/07 06:29:56;;;;;;;6.90;2.37;;;;;;;22.99;47.34;101237.75;144992;589;6002;-81
2021/05/07 06:32:23;;;;;;;10.05;2.35;;;;;;;22.91;47.81;101234.34;144992;645;6002;-81
2021/05/07 06:34:49;;;;;;;6.55;2.60;;;;;;;23.00;47.93;101230.69;144992;570;6003;-82
2021/05/07 06:37:17;;;;;;;3.08;1.75;;;;;;;22.74;47.25;101234.56;144992;617;6002;-80
2021/05/07 06:39:44;;;;;;;7.85;2.30;;;;;;;22.60;48.48;101220.63;144992;587;6002;-82
2021/05/07 06:42:10;;;;;;;6.30;2.20;;;;;;;22.54;48.30;101218.06;144992;564;6002;-83
2021/05/07 06:44:37;;;;;;;5.55;1.77;;;;;;;22.53;48.36;101211.03;144992;593;6002;-82
2021/05/07 06:47:03;;;;;;;4.32;2.42;;;;;;;22.36;48.48;101217.38;144992;614;6002;-83
2021/05/07 06:49:32;;;;;;;7.28;2.00;;;;;;;22.69;48.17;101217.88;144992;586;6002;-80
2021/05/07 06:51:59;;;;;;;5.18;2.08;;;;;;;22.68;46.83;101224.03;144992;664;6002;-78
2021/05/07 06:54:27;;;;;;;5.43;1.60;;;;;;;22.37;47.40;101224.41;144992;644;6002;-82
2021/05/07 06:56:56;;;;;;;4.97;1.50;;;;;;;22.59;47.01;101218.91;144992;580;6002;-81
2021/05/07 06:59:26;;;;;;;4.90;1.83;;;;;;;22.68;46.29;101229.34;144992;589;6002;-81
2021/05/07 07:01:53;;;;;;;6.22;1.27;;;;;;;22.63;46.25;101225.88;144991;608;6002;-82
2021/05/07 07:04:20;;;;;;;4.87;1.90;;;;;;;22.77;45.64;101217.78;144992;606;6002;-81
2021/05/07 07:06:46;;;;;;;3.65;1.37;;;;;;;22.79;45.05;101222.12;144992;579;6002;-82
2021/05/07 07:09:16;;;;;;;4.70;1.62;;;;;;;22.67;46.18;101222.31;144992;592;6002;-82
2021/05/07 07:11:43;;;;;;;5.05;1.70;;;;;;;22.78;45.86;101217.75;144992;564;6002;-83
2021/05/07 07:14:10;;;;;;;5.62;1.87;;;;;;;22.89;46.07;101220.28;144992;643;6002;-82
2021/05/07 07:16:36;;;;;;;6.20;1.77;;;;;;;22.96;46.17;101215.75;144992;592;6002;-81
2021/05/07 07:19:03;;;;;;;8.23;2.03;;;;;;;23.03;46.37;101213.91;144992;564;6002;-81
2021/05/07 07:21:30;;;;;;;8.63;2.20;;;;;;;23.17;46.17;101215.47;144992;641;6002;-82
2021/05/07 07:23:57;;;;;;;5.53;3.05;;;;;;;23.37;46.07;101222.28;144992;589;6002;-82
2021/05/07 07:26:24;;;;;;;5.37;1.90;;;;;;;23.40;46.77;101208.97;144992;571;6003;-82
2021/05/07 07:28:53;;;;;;;9.25;2.15;;;;;;;23.46;47.57;101206.19;144992;614;6002;-82
2021/05/07 07:31:21;;;;;;;5.18;2.12;;;;;;;23.56;47.39;101193.69;144992;594;6002;-81
2021/05/07 07:33:48;;;;;;;5.45;1.80;;;;;;;23.68;46.56;101182.00;144992;593;6003;-80
2021/05/07 07:36:14;;;;;;;7.37;2.20;;;;;;;23.83;46.52;101178.19;144992;608;6002;-80
2021/05/07 07:38:41;;;;;;;5.55;2.22;;;;;;;24.00;46.87;101180.59;144992;657;6002;-81
2021/05/07 07:41:08;;;;;;;10.10;4.07;;;;;;;24.09;46.32;101175.09;144992;569;6002;-81
2021/05/07 07:43:35;;;;;;;9.82;4.40;;;;;;;24.28;46.47;101172.97;144992;706;6002;-81
2021/05/07 07:46:01;;;;;;;8.88;4.43;;;;;;;24.11;46.45;101173.28;144992;581;6002;-82
2021/05/07 07:48:28;;;;;;;8.07;3.75;;;;;;;24.09;45.52;101172.47;144992;563;6002;-83
2021/05/07 07:50:55;;;;;;;9.43;4.47;;;;;;;24.06;46.87;101175.16;144992;645;6002;-82
2021/05/07 07:53:21;;;;;;;9.27;3.40;;;;;;;23.93;45.51;101174.53;144992;729;6002;-82
2021/05/07 07:55:48;;;;;;;6.03;2.70;;;;;;;23.81;44.57;101166.75;144992;588;6002;-83
2021/05/07 07:58:15;;;;;;;8.60;2.95;;;;;;;23.98;45.48;101169.13;144992;581;6002;-81
2021/05/07 08:00:44;;;;;;;9.38;2.55;;;;;;;23.95;46.12;101174.50;144992;579;6002;-83
2021/05/07 08:03:13;;;;;;;7.85;3.00;;;;;;;24.23;45.63;101177.50;144992;579;6002;-80
2021/05/07 08:05:46;;;;;;;10.68;2.22;;;;;;;24.21;44.86;101176.63;144992;594;6002;-82
2021/05/07 08:08:15;;;;;;;6.15;1.90;;;;;;;24.50;45.15;101173.41;144992;679;6002;-80
2021/05/07 08:10:42;;;;;;;5.28;1.98;;;;;;;24.33;45.37;101171.09;144992;574;6002;-81
2021/05/07 08:13:08;;;;;;;10.32;2.35;;;;;;;24.53;45.27;101180.41;144992;669;6002;-86
2021/05/07 08:15:35;;;;;;;7.93;2.05;;;;;;;24.56;47.00;101178.63;144992;572;6002;-83
2021/05/07 08:18:01;;;;;;;11.55;2.40;;;;;;;24.51;47.10;101177.78;144992;601;6002;-81
2021/05/07 08:20:28;;;;;;;4.90;1.85;;;;;;;24.41;47.20;101182.41;144992;595;6002;-81
2021/05/07 08:22:56;;;;;;;5.93;1.95;;;;;;;24.52;46.89;101178.69;144992;622;6002;-84
2021/05/07 08:25:26;;;;;;;8.38;2.10;;;;;;;24.51;46.49;101174.28;144992;569;6002;-82
2021/05/07 08:27:52;;;;;;;9.05;2.12;;;;;;;24.38;46.75;101174.53;144992;597;6002;-80
2021/05/07 08:30:19;;;;;;;4.47;1.60;;;;;;;24.43;46.43;101170.03;144992;606;6002;-80
2021/05/07 08:32:46;;;;;;;6.37;1.83;;;;;;;24.25;46.86;101181.00;144992;613;6002;-80
2021/05/07 08:35:13;;;;;;;4.55;1.80;;;;;;;24.14;47.20;101180.34;144992;576;6002;-81
2021/05/07 08:37:43;;;;;;;7.45;2.25;;;;;;;24.01;47.31;101174.38;144992;601;6002;-81
2021/05/07 08:40:12;;;;;;;4.43;2.22;;;;;;;24.23;46.35;101166.91;144992;575;6002;-80
2021/05/07 08:42:54;;;;;;;8.35;2.53;;;;;;;24.14;46.64;101167.06;144992;593;6002;-80
2021/05/07 08:45:21;;;;;;;7.82;2.67;;;;;;;24.41;45.97;101165.63;144992;673;6002;-82
2021/05/07 08:47:52;;;;;;;7.15;1.95;;;;;;;24.57;45.64;101171.53;144992;575;6002;-81
2021/05/07 08:50:20;;;;;;;5.60;2.15;;;;;;;24.55;44.82;101168.00;144992;571;6002;-80
2021/05/07 08:52:47;;;;;;;4.72;1.83;;;;;;;24.42;44.39;101165.59;144992;584;6002;-80
2021/05/07 08:55:14;;;;;;;4.72;1.80;;;;;;;24.66;44.88;101155.41;144992;575;6002;-81
2021/05/07 08:57:40;;;;;;;8.45;1.70;;;;;;;24.47;44.46;101159.31;144992;566;6002;-80
2021/05/07 09:00:10;;;;;;;6.05;2.05;;;;;;;24.68;44.97;101166.84;144992;565;6002;-81
2021/05/07 09:02:38;;;;;;;5.18;1.87;;;;;;;24.60;44.79;101164.38;144992;622;6002;-80
2021/05/07 09:05:06;;;;;;;7.93;2.10;;;;;;;24.61;45.29;101175.87;144992;575;6002;-80
2021/05/07 09:07:33;;;;;;;8.23;2.42;;;;;;;24.75;45.11;101178.22;144992;575;6002;-82
2021/05/07 09:10:02;;;;;;;7.50;2.53;;;;;;;24.71;45.74;101176.53;144992;604;6002;-80
2021/05/07 09:12:32;;;;;;;11.52;3.92;;;;;;;24.75;46.57;101180.88;144992;571;6002;-80
2021/05/07 09:15:01;;;;;;;4.05;2.35;;;;;;;24.72;46.49;101186.25;144992;588;6002;-80
2021/05/07 09:17:31;;;;;;;5.78;2.35;;;;;;;24.46;48.32;101179.69;144992;643;6002;-80
2021/05/07 09:20:15;;;;;;;5.87;2.42;;;;;;;24.53;48.47;101175.09;144992;564;6002;-80
2021/05/07 09:22:43;;;;;;;5.47;2.30;;;;;;;24.40;48.22;101172.72;144992;575;6002;-81
2021/05/07 09:25:15;;;;;;;6.03;2.70;;;;;;;24.37;49.78;101169.25;144992;639;6002;-80
2021/05/07 09:27:43;;;;;;;7.12;3.08;;;;;;;24.28;49.07;101167.66;144992;577;6002;-80
2021/05/07 09:30:29;;;;;;;4.95;2.85;;;;;;;24.37;49.45;101170.13;144992;571;6002;-81
2021/05/07 09:32:56;;;;;;;5.97;2.00;;;;;;;24.40;49.06;101169.19;144992;574;6003;-80
2021/05/07 09:35:28;;;;;;;6.62;2.08;;;;;;;24.52;48.77;101168.94;144992;580;6002;-82
2021/05/07 09:37:59;;;;;;;7.93;2.33;;;;;;;24.36;49.19;101162.22;144992;601;6002;-80
2021/05/07 09:40:26;;;;;;;9.98;2.95;;;;;;;24.35;49.74;101165.75;144992;674;6002;-82
2021/05/07 09:43:15;;;;;;;7.87;2.72;;;;;;;24.27;50.99;101166.81;144991;566;6002;-81
2021/05/07 09:45:47;;;;;;;6.28;2.40;;;;;;;24.50;48.55;101170.75;144992;615;6002;-82
2021/05/07 09:48:27;;;;;;;6.75;2.30;;;;;;;24.42;48.22;101164.75;144992;581;6002;-81
2021/05/07 09:51:02;;;;;;;4.43;2.00;;;;;;;24.38;46.19;101148.00;144992;583;6002;-81
2021/05/07 09:53:33;;;;;;;7.60;1.83;;;;;;;24.20;46.24;101143.94;144992;625;6002;-83
2021/05/07 09:56:09;;;;;;;4.55;2.08;;;;;;;24.42;46.85;101144.38;144992;567;6002;-81
2021/05/07 09:58:37;;;;;;;4.60;1.60;;;;;;;24.61;43.19;101147.53;144992;575;6002;-80
2021/05/07 10:01:05;;;;;;;4.25;1.40;;;;;;;24.62;44.65;101140.44;144992;640;6002;-83
2021/05/07 10:03:31;;;;;;;3.87;1.37;;;;;;;24.83;44.56;101138.22;144992;600;6002;-81
2021/05/07 10:05:58;;;;;;;3.85;1.55;;;;;;;24.89;44.42;101138.09;144992;565;6002;-81
2021/05/07 10:08:25;;;;;;;5.05;1.70;;;;;;;25.06;40.53;101135.03;144992;569;6002;-82
2021/05/07 10:10:58;;;;;;;4.80;1.80;;;;;;;25.03;41.97;101135.09;144992;602;6002;-83
2021/05/07 10:13:28;;;;;;;7.85;1.77;;;;;;;25.06;39.57;101132.37;144992;587;6011;-83
2021/05/07 10:16:06;;;;;;;4.78;1.70;;;;;;;25.08;39.07;101130.56;144991;591;6007;-81
2021/05/07 10:18:34;;;;;;;2.42;1.40;;;;;;;24.82;40.65;101132.03;144992;612;6002;-81
2021/05/07 10:21:06;;;;;;;5.28;1.23;;;;;;;24.85;39.31;101129.31;144992;615;6007;-81
2021/05/07 10:23:34;;;;;;;5.03;1.50;;;;;;;24.96;39.31;101137.91;144992;610;6002;-81
2021/05/07 10:26:09;;;;;;;3.67;1.20;;;;;;;24.93;37.71;101127.34;144992;582;6002;-80
2021/05/07 10:28:50;;;;;;;5.15;1.60;;;;;;;25.05;40.20;101126.19;144992;639;6002;-84
2021/05/07 10:31:19;;;;;;;5.50;1.52;;;;;;;25.21;40.14;101108.06;144992;582;6002;-78
2021/05/07 10:34:06;;;;;;;5.75;1.85;;;;;;;25.29;40.16;101106.16;144992;575;6002;-79
2021/05/07 10:36:39;;;;;;;4.97;1.60;;;;;;;25.24;40.38;101097.38;144992;585;6004;-81
2021/05/07 10:39:26;;;;;;;5.57;1.35;;;;;;;25.43;39.73;101100.47;144992;571;6004;-82
2021/05/07 10:41:58;;;;;;;4.62;1.75;;;;;;;25.39;41.74;101089.97;144992;619;6004;-81
2021/05/07 10:44:26;;;;;;;6.60;2.80;;;;;;;25.49;41.51;101097.66;144992;573;6004;-81
2021/05/07 10:47:07;;;;;;;5.78;2.15;;;;;;;25.64;41.50;101104.37;144992;614;6005;-81
2021/05/07 10:49:38;;;;;;;6.43;2.12;;;;;;;25.71;41.77;101108.59;144992;626;6004;-81
2021/05/07 10:52:08;;;;;;;6.62;2.47;;;;;;;25.94;41.89;101111.53;144992;635;6004;-83
2021/05/07 10:54:41;;;;;;;4.30;1.90;;;;;;;25.94;42.16;101108.88;144992;590;6005;-79
2021/05/07 10:57:24;;;;;;;6.68;2.55;;;;;;;25.74;41.74;101109.41;144992;579;6004;-81
2021/05/07 11:00:13;;;;;;;8.20;3.15;;;;;;;25.81;42.17;101108.34;144992;599;6004;-82
2021/05/07 11:02:47;;;;;;;4.87;2.40;;;;;;;25.88;39.64;101102.81;144992;563;6004;-81
2021/05/07 11:05:47;;;;;;;4.37;1.90;;;;;;;25.98;39.60;101102.59;144992;605;6004;-82
2021/05/07 11:08:14;;;;;;;6.78;1.75;;;;;;;26.09;36.30;101103.16;144992;596;6002;-81
2021/05/07 11:10:41;;;;;;;6.85;3.78;;;;;;;26.13;39.33;101098.63;144992;607;6002;-81
2021/05/07 11:13:09;;;;;;;5.35;2.45;;;;;;;26.26;39.12;101089.34;144992;588;6002;-82
2021/05/07 11:15:36;;;;;;;5.05;1.95;;;;;;;26.21;38.88;101085.94;144992;578;6002;-82
2021/05/07 11:18:12;;;;;;;4.28;1.70;;;;;;;26.36;37.64;101090.81;144992;596;6002;-84
2021/05/07 11:20:45;;;;;;;4.32;1.67;;;;;;;26.34;35.04;101086.44;144992;576;6004;-82
2021/05/07 11:23:13;;;;;;;3.53;1.48;;;;;;;26.29;35.23;101075.94;144992;630;6004;-81
2021/05/07 11:25:41;;;;;;;4.05;2.00;;;;;;;26.35;36.30;101069.56;144992;600;6004;-82
2021/05/07 11:28:19;;;;;;;4.72;1.27;;;;;;;26.49;35.96;101082.47;144992;640;6004;-81
2021/05/07 11:30:57;;;;;;;4.75;1.58;;;;;;;26.60;35.24;101077.69;144992;648;6004;-82
2021/05/07 11:33:36;;;;;;;4.82;1.55;;;;;;;26.40;33.30;101072.97;144992;568;6004;-87
2021/05/07 11:36:11;;;;;;;3.45;1.40;;;;;;;26.37;34.10;101070.41;144992;582;6004;-82
2021/05/07 11:38:40;;;;;;;4.45;1.42;;;;;;;26.40;34.11;101063.19;144992;593;6004;-82
2021/05/07 11:41:23;;;;;;;6.35;1.60;;;;;;;26.65;35.44;101058.94;144992;600;6004;-82
2021/05/07 11:43:51;;;;;;;4.82;2.05;;;;;;;26.79;34.77;101051.38;144992;596;6004;-81
2021/05/07 11:46:19;;;;;;;4.55;1.75;;;;;;;26.68;35.05;101054.37;144992;597;6005;-81